createdAt,value
2019-05-05T00:00:26.120Z,11.4
2019-05-05T00:01:16.276Z,11.4
2019-05-05T00:02:06.053Z,11.4
2019-05-05T00:02:56.364Z,11.4
2019-05-05T00:03:45.830Z,11.4
2019-05-05T00:04:36.360Z,11.3
2019-05-05T00:05:26.190Z,11.3
2019-05-05T00:06:16.280Z,11.3
2019-05-05T00:07:06.133Z,11.3
2019-05-05T00:08:46.935Z,11.3
2019-05-05T00:09:36.370Z,11.3
2019-05-05T00:10:26.550Z,11.3
2019-05-05T00:11:16.680Z,11.3
2019-05-05T00:12:06.571Z,11.3
2019-05-05T00:12:56.618Z,11.3
2019-05-05T00:13:46.380Z,11.3
2019-05-05T00:14:36.687Z,11.3
2019-05-05T00:15:26.201Z,11.3
2019-05-05T00:16:16.565Z,11.3
2019-05-05T00:17:06.902Z,11.3
2019-05-05T00:17:56.942Z,11.3
2019-05-05T00:18:47.024Z,11.2
2019-05-05T00:19:37.443Z,11.3
2019-05-05T00:20:27.141Z,11.2
2019-05-05T00:21:17.187Z,11.2
2019-05-05T00:22:06.981Z,11.2
2019-05-05T00:22:56.769Z,11.2
2019-05-05T00:23:47.384Z,11.2
2019-05-05T00:24:37.444Z,11.2
2019-05-05T00:25:27.222Z,11.2
2019-05-05T00:26:17.579Z,11.2
2019-05-05T00:27:07.382Z,11.2
2019-05-05T00:27:57.150Z,11.2
2019-05-05T00:28:47.741Z,11.2
2019-05-05T00:29:37.816Z,11.2
2019-05-05T00:30:27.874Z,11.2
2019-05-05T00:31:17.939Z,11.2
2019-05-05T00:32:07.991Z,11.2
2019-05-05T00:32:58.071Z,11.2
2019-05-05T00:33:47.848Z,11.2
2019-05-05T00:34:38.189Z,11.2
2019-05-05T00:35:27.961Z,11.2
2019-05-05T00:36:18.051Z,11.2
2019-05-05T00:37:08.356Z,11.2
2019-05-05T00:37:58.421Z,11.2
2019-05-05T00:38:48.484Z,11.2
2019-05-05T00:39:38.560Z,11.2
2019-05-05T00:40:28.341Z,11.3
2019-05-05T00:41:18.689Z,11.3
2019-05-05T00:42:08.465Z,11.3
2019-05-05T00:42:58.826Z,11.3
2019-05-05T00:43:48.599Z,11.3
2019-05-05T00:44:38.642Z,11.3
2019-05-05T00:45:28.726Z,11.3
2019-05-05T00:46:18.767Z,11.3
2019-05-05T00:47:09.049Z,11.3
2019-05-05T00:47:59.170Z,11.3
2019-05-05T00:48:49.705Z,11.3
2019-05-05T00:49:50.315Z,11.3
2019-05-05T00:51:19.142Z,11.3
2019-05-05T00:52:09.206Z,11.3
2019-05-05T00:52:59.550Z,11.3
2019-05-05T00:53:49.800Z,11.3
2019-05-05T00:54:39.678Z,11.3
2019-05-05T00:55:29.455Z,11.3
2019-05-05T00:56:19.253Z,11.3
2019-05-05T00:57:10.330Z,11.3
2019-05-05T00:57:59.902Z,11.3
2019-05-05T00:58:50.007Z,11.3
2019-05-05T00:59:40.050Z,11.3
2019-05-05T01:00:30.585Z,11.3
2019-05-05T01:01:20.155Z,11.3
2019-05-05T01:02:10.229Z,11.3
2019-05-05T01:03:00.770Z,11.3
2019-05-05T01:03:50.549Z,11.2
2019-05-05T01:04:40.884Z,11.2
2019-05-05T01:05:30.949Z,11.2
2019-05-05T01:06:20.729Z,11.2
2019-05-05T01:07:11.066Z,11.1
2019-05-05T01:08:00.649Z,11.1
2019-05-05T01:08:51.188Z,11.1
2019-05-05T01:09:40.776Z,11.1
2019-05-05T01:10:31.307Z,11.1
2019-05-05T01:11:21.383Z,11.1
2019-05-05T01:12:11.156Z,11
2019-05-05T01:13:01.229Z,11
2019-05-05T01:13:51.555Z,11
2019-05-05T01:14:41.651Z,11
2019-05-05T01:15:31.684Z,11
2019-05-05T01:16:21.220Z,10.9
2019-05-05T01:17:11.821Z,10.9
2019-05-05T01:18:05.598Z,10.9
2019-05-05T01:19:41.443Z,10.9
2019-05-05T01:20:31.506Z,10.9
2019-05-05T01:21:24.219Z,10.8
2019-05-05T01:23:04.214Z,10.8
2019-05-05T01:24:42.381Z,10.8
2019-05-05T01:25:32.166Z,10.8
2019-05-05T01:26:21.950Z,10.8
2019-05-05T01:27:14.541Z,10.7
2019-05-05T01:28:52.691Z,10.7
2019-05-05T01:29:42.472Z,10.7
2019-05-05T01:30:31.993Z,10.7
2019-05-05T01:31:25.033Z,10.6
2019-05-05T01:33:02.460Z,10.6
2019-05-05T01:33:54.375Z,10.6
2019-05-05T01:38:05.337Z,10.6
2019-05-05T01:39:45.678Z,10.5
2019-05-05T02:32:18.032Z,10
2019-05-05T02:33:08.402Z,10
2019-05-05T02:33:58.658Z,10
2019-05-05T02:37:18.220Z,9.9
2019-05-05T02:38:08.769Z,9.9
2019-05-05T02:38:58.520Z,9.9
2019-05-05T02:40:08.752Z,9.9
2019-05-05T02:42:18.139Z,9.9
2019-05-05T02:44:48.365Z,9.8
2019-05-05T02:45:38.426Z,9.8
2019-05-05T02:46:28.204Z,9.8
2019-05-05T02:48:08.294Z,9.8
2019-05-05T02:48:58.110Z,9.8
2019-05-05T02:49:48.172Z,9.8
2019-05-05T02:51:07.585Z,9.8
2019-05-05T02:51:28.138Z,9.8
2019-05-05T02:52:18.901Z,9.8
2019-05-05T02:53:08.388Z,9.8
2019-05-05T02:53:58.720Z,9.8
2019-05-05T02:54:49.058Z,9.8
2019-05-05T02:55:38.570Z,9.8
2019-05-05T02:56:29.169Z,9.8
2019-05-05T02:57:19.233Z,9.8
2019-05-05T02:58:09.302Z,9.8
2019-05-05T02:58:58.795Z,9.8
2019-05-05T02:59:48.860Z,9.8
2019-05-05T03:00:39.198Z,9.8
2019-05-05T03:01:29.260Z,9.8
2019-05-05T03:02:19.055Z,9.8
2019-05-05T03:03:09.402Z,9.8
2019-05-05T03:06:39.307Z,9.7
2019-05-05T03:08:19.685Z,9.7
2019-05-05T03:09:09.748Z,9.7
2019-05-05T03:09:59.549Z,9.7
2019-05-05T03:10:49.874Z,9.7
2019-05-05T03:11:39.664Z,9.7
2019-05-05T03:12:29.707Z,9.6
2019-05-05T03:13:19.500Z,9.6
2019-05-05T03:14:10.109Z,9.6
2019-05-05T03:14:59.912Z,9.6
2019-05-05T03:15:50.247Z,9.6
2019-05-05T03:16:40.039Z,9.6
2019-05-05T03:17:30.369Z,9.6
2019-05-05T03:18:20.439Z,9.6
2019-05-05T03:19:09.660Z,9.6
2019-05-05T03:20:00.545Z,9.6
2019-05-05T03:21:08.796Z,9.6
2019-05-05T03:22:30.729Z,9.6
2019-05-05T03:23:20.789Z,9.6
2019-05-05T03:24:10.860Z,9.6
2019-05-05T03:25:00.916Z,9.6
2019-05-05T03:25:50.421Z,9.6
2019-05-05T03:26:40.766Z,9.6
2019-05-05T03:27:31.104Z,9.6
2019-05-05T03:28:21.176Z,9.6
2019-05-05T03:29:10.946Z,9.6
2019-05-05T03:30:04.534Z,9.6
2019-05-05T03:31:41.469Z,9.6
2019-05-05T03:32:31.506Z,9.6
2019-05-05T03:33:24.693Z,9.6
2019-05-05T03:35:01.388Z,9.6
2019-05-05T03:35:51.445Z,9.5
2019-05-05T03:36:41.786Z,9.5
2019-05-05T03:38:21.917Z,9.6
2019-05-05T03:39:11.690Z,9.6
2019-05-05T03:40:01.783Z,9.6
2019-05-05T03:40:54.054Z,9.6
2019-05-05T03:42:34.328Z,9.6
2019-05-05T04:14:19.376Z,9.9
2019-05-05T04:44:19.656Z,10.2
2019-05-05T04:51:53.667Z,10.3
2019-05-05T04:55:57.660Z,10.3
2019-05-05T04:56:47.720Z,10.3
2019-05-05T04:57:37.776Z,10.3
2019-05-05T05:00:07.721Z,10.4
2019-05-05T05:00:57.768Z,10.4
2019-05-05T05:02:38.180Z,10.4
2019-05-05T05:03:27.945Z,10.5
2019-05-05T05:04:18.283Z,10.5
2019-05-05T05:05:08.338Z,10.6
2019-05-05T05:05:58.398Z,10.6
2019-05-05T05:06:48.460Z,10.7
2019-05-05T05:07:38.549Z,10.7
2019-05-05T05:08:28.038Z,10.8
2019-05-05T05:09:18.643Z,10.9
2019-05-05T05:10:08.712Z,10.9
2019-05-05T05:10:58.783Z,11
2019-05-05T05:11:48.572Z,11.1
2019-05-05T05:12:38.367Z,11.1
2019-05-05T05:13:28.975Z,11.3
2019-05-05T05:14:18.488Z,11.4
2019-05-05T05:15:09.085Z,11.4
2019-05-05T05:15:59.162Z,11.6
2019-05-05T05:16:48.922Z,11.7
2019-05-05T05:17:38.990Z,11.8
2019-05-05T05:18:29.322Z,11.9
2019-05-05T05:20:09.452Z,12.2
2019-05-05T05:20:58.962Z,12.3
2019-05-05T05:22:06.004Z,12.4
2019-05-05T05:23:30.933Z,12.6
2019-05-05T05:24:19.769Z,12.8
2019-05-05T05:25:09.825Z,12.9
2019-05-05T05:25:59.329Z,13
2019-05-05T05:26:49.941Z,13.1
2019-05-05T05:27:39.729Z,13.3
2019-05-05T05:28:30.089Z,13.4
2019-05-05T05:29:19.579Z,13.5
2019-05-05T05:30:09.914Z,13.6
2019-05-05T05:30:59.974Z,13.8
2019-05-05T05:31:50.049Z,13.8
2019-05-05T05:32:41.586Z,13.9
2019-05-05T05:33:30.486Z,14.1
2019-05-05T05:34:20.506Z,14.1
2019-05-05T05:35:09.756Z,14.3
2019-05-05T05:36:00.371Z,14.3
2019-05-05T05:36:50.429Z,14.4
2019-05-05T05:37:40.212Z,14.4
2019-05-05T05:38:30.806Z,14.4
2019-05-05T05:39:20.867Z,14.5
2019-05-05T05:40:10.943Z,14.6
2019-05-05T05:41:00.988Z,14.6
2019-05-05T05:41:51.061Z,14.6
2019-05-05T05:42:40.569Z,14.6
2019-05-05T05:43:30.911Z,14.7
2019-05-05T05:44:21.261Z,14.7
2019-05-05T05:45:11.323Z,14.7
2019-05-05T05:46:01.109Z,14.7
2019-05-05T05:47:41.201Z,14.8
2019-05-05T05:48:31.563Z,14.8
2019-05-05T05:49:21.625Z,14.8
2019-05-05T05:50:11.408Z,14.8
2019-05-05T05:51:01.208Z,14.8
2019-05-05T05:51:51.256Z,14.8
2019-05-05T05:52:44.093Z,14.8
2019-05-05T05:54:23.978Z,14.9
2019-05-05T05:56:53.737Z,14.9
2019-05-05T06:00:14.260Z,15
2019-05-05T06:02:12.357Z,15.1
2019-05-05T06:04:39.191Z,15.1
2019-05-05T06:05:29.512Z,15.1
2019-05-05T06:06:19.569Z,15.1
2019-05-05T06:07:09.363Z,15.2
2019-05-05T06:07:59.416Z,15.3
2019-05-05T06:08:49.479Z,15.3
2019-05-05T06:09:39.810Z,15.3
2019-05-05T06:10:29.592Z,15.4
2019-05-05T06:11:19.924Z,15.4
2019-05-05T06:12:09.994Z,15.5
2019-05-05T06:12:59.816Z,15.6
2019-05-05T06:13:50.134Z,15.7
2019-05-05T06:14:39.907Z,15.8
2019-05-05T06:15:29.977Z,15.9
2019-05-05T06:16:20.023Z,16.1
2019-05-05T06:17:10.380Z,16.2
2019-05-05T06:17:59.879Z,16.3
2019-05-05T06:18:50.481Z,16.4
2019-05-05T06:19:40.573Z,16.6
2019-05-05T06:20:30.603Z,16.7
2019-05-05T06:21:20.118Z,16.9
2019-05-05T06:22:10.451Z,17.1
2019-05-05T06:23:00.513Z,17.3
2019-05-05T06:23:50.593Z,17.5
2019-05-05T06:24:40.711Z,17.7
2019-05-05T06:25:31.026Z,18
2019-05-05T06:26:20.805Z,18.3
2019-05-05T06:27:11.118Z,18.6
2019-05-05T06:28:00.897Z,18.9
2019-05-05T06:28:51.236Z,19.2
2019-05-05T06:30:31.081Z,19.8
2019-05-05T06:31:21.136Z,20.1
2019-05-05T06:32:11.198Z,20.3
2019-05-05T06:33:01.551Z,20.4
2019-05-05T06:33:51.603Z,20.5
2019-05-05T06:34:41.655Z,20.6
2019-05-05T06:35:31.164Z,20.8
2019-05-05T06:36:23.105Z,20.9
2019-05-05T06:38:01.909Z,21.1
2019-05-05T06:38:54.008Z,21.2
2019-05-05T06:40:34.022Z,21.4
2019-05-05T06:43:01.725Z,21.4
2019-05-05T06:43:54.217Z,21.4
2019-05-05T06:48:54.349Z,21.2
2019-05-05T06:54:44.824Z,20.6
2019-05-05T07:05:29.466Z,21.4
2019-05-05T07:06:19.264Z,21.5
2019-05-05T07:07:09.826Z,21.7
2019-05-05T07:07:59.381Z,21.8
2019-05-05T07:08:49.163Z,22
2019-05-05T07:09:39.223Z,22.1
2019-05-05T07:10:44.559Z,22.3
2019-05-05T07:12:10.200Z,22.6
2019-05-05T07:12:59.731Z,22.8
2019-05-05T07:13:49.818Z,23.1
2019-05-05T07:14:39.879Z,23.3
2019-05-05T07:15:30.226Z,23.6
2019-05-05T07:16:20.277Z,23.8
2019-05-05T07:17:10.325Z,24.1
2019-05-05T07:18:00.402Z,24.4
2019-05-05T07:18:50.453Z,24.6
2019-05-05T07:19:39.680Z,24.9
2019-05-05T07:20:30.307Z,25.3
2019-05-05T07:21:20.638Z,25.5
2019-05-05T07:22:10.695Z,25.8
2019-05-05T07:23:07.028Z,26.1
2019-05-05T07:24:40.050Z,26.6
2019-05-05T07:25:46.840Z,26.8
2019-05-05T07:27:10.799Z,27.3
2019-05-05T07:28:00.613Z,27.4
2019-05-05T07:28:50.922Z,27.8
2019-05-05T07:29:43.428Z,28
2019-05-05T07:31:23.576Z,28.8
2019-05-05T07:33:01.224Z,30
2019-05-05T07:33:51.558Z,30.5
2019-05-05T07:34:41.344Z,30.9
2019-05-05T07:35:31.675Z,31.3
2019-05-05T07:36:22.017Z,31.6
2019-05-05T07:38:01.890Z,32.1
2019-05-05T07:38:51.679Z,32.3
2019-05-05T07:39:42.002Z,32.6
2019-05-05T07:41:24.444Z,33.2
2019-05-05T07:43:16.908Z,34
2019-05-05T07:44:44.571Z,35.2
2019-05-05T07:46:24.606Z,37.1
2019-05-05T07:48:04.565Z,39.1
2019-05-05T07:50:37.859Z,42.6
2019-05-05T07:53:18.838Z,46.1
2019-05-05T08:11:25.112Z,55.6
2019-05-05T08:18:20.994Z,61.1
2019-05-05T08:19:45.495Z,56
2019-05-05T08:20:35.402Z,52.3
2019-05-05T08:23:09.307Z,47.6
2019-05-05T08:25:41.545Z,45.2
2019-05-05T08:26:25.174Z,44.7
2019-05-05T08:27:15.934Z,44.3
2019-05-05T08:28:05.839Z,43.7
2019-05-05T08:28:55.518Z,43.3
2019-05-05T08:29:45.344Z,43
2019-05-05T08:30:35.096Z,42.8
2019-05-05T08:31:26.474Z,42.8
2019-05-05T08:32:15.404Z,42.7
2019-05-05T08:33:56.210Z,42.4
2019-05-05T08:35:04.125Z,42.3
2019-05-05T08:36:25.715Z,42.2
2019-05-05T08:37:16.143Z,42.1
2019-05-05T08:38:05.968Z,41.9
2019-05-05T08:38:55.871Z,41.7
2019-05-05T08:39:46.266Z,41.4
2019-05-05T08:42:15.890Z,40.6
2019-05-05T08:43:56.266Z,40.3
2019-05-05T08:45:36.413Z,40.1
2019-05-05T08:48:06.660Z,40.4
2019-05-05T08:48:56.651Z,40.7
2019-05-05T08:49:46.710Z,41.3
2019-05-05T08:50:36.787Z,42.4
2019-05-05T08:51:26.558Z,43.8
2019-05-05T08:52:16.618Z,45.3
2019-05-05T08:53:09.910Z,47
2019-05-05T08:54:47.080Z,50.4
2019-05-05T08:56:26.932Z,53.5
2019-05-05T08:57:16.979Z,55
2019-05-05T08:58:07.537Z,56.4
2019-05-05T08:59:47.657Z,59.1
2019-05-05T09:00:37.982Z,60.4
2019-05-05T09:01:28.045Z,62.7
2019-05-05T09:02:18.102Z,63.9
2019-05-05T09:03:08.164Z,62.3
2019-05-05T09:03:58.226Z,60.1
2019-05-05T09:04:47.742Z,56.5
2019-05-05T09:05:38.079Z,53.6
2019-05-05T09:06:28.407Z,51.8
2019-05-05T09:07:18.494Z,51
2019-05-05T09:08:08.277Z,51
2019-05-05T09:08:58.622Z,51.4
2019-05-05T09:09:48.399Z,52.2
2019-05-05T09:10:38.476Z,53.1
2019-05-05T09:11:28.799Z,54.3
2019-05-05T09:12:18.859Z,55.4
2019-05-05T09:13:08.649Z,56.6
2019-05-05T09:13:58.731Z,57.9
2019-05-05T09:14:48.779Z,59.2
2019-05-05T09:15:39.151Z,61.2
2019-05-05T09:16:28.613Z,62.4
2019-05-05T09:17:18.668Z,61.9
2019-05-05T09:18:09.003Z,61.1
2019-05-05T09:18:59.339Z,59.9
2019-05-05T09:19:49.133Z,58
2019-05-05T09:20:39.206Z,56.1
2019-05-05T09:21:29.619Z,54.6
2019-05-05T09:22:19.319Z,53.6
2019-05-05T09:23:09.379Z,52.9
2019-05-05T09:24:06.509Z,52.6
2019-05-05T09:25:39.582Z,51.9
2019-05-05T09:26:29.898Z,51.6
2019-05-05T09:27:19.953Z,51.5
2019-05-05T09:28:10.050Z,51.5
2019-05-05T09:29:00.083Z,51.5
2019-05-05T09:29:49.603Z,51.6
2019-05-05T09:30:40.219Z,51.6
2019-05-05T09:31:29.718Z,51.5
2019-05-05T09:32:20.077Z,51.3
2019-05-05T09:33:10.120Z,50.9
2019-05-05T09:34:00.463Z,50.6
2019-05-05T09:34:50.560Z,50.4
2019-05-05T09:35:40.329Z,50.4
2019-05-05T09:36:30.650Z,50.6
2019-05-05T09:37:20.773Z,50.8
2019-05-05T09:38:10.514Z,51.1
2019-05-05T09:39:00.287Z,51.4
2019-05-05T09:39:50.884Z,51.6
2019-05-05T09:40:40.947Z,51.8
2019-05-05T09:41:30.735Z,52
2019-05-05T09:43:11.135Z,52.9
2019-05-05T09:44:01.222Z,53.7
2019-05-05T09:44:50.979Z,54.5
2019-05-05T09:45:40.790Z,55.2
2019-05-05T09:46:31.389Z,55.8
2019-05-05T09:47:21.447Z,56.1
2019-05-05T09:48:13.643Z,56.1
2019-05-05T09:49:51.616Z,55.8
2019-05-05T09:50:44.102Z,55.6
2019-05-05T09:52:21.809Z,54.9
2019-05-05T09:53:11.653Z,54.6
2019-05-05T09:54:18.667Z,54.2
2019-05-05T09:55:44.003Z,53.4
2019-05-05T09:59:54.101Z,51.8
2019-05-05T10:05:39.306Z,50.7
2019-05-05T10:06:29.363Z,51.1
2019-05-05T10:07:18.863Z,51.6
2019-05-05T10:08:09.480Z,52.3
2019-05-05T10:08:59.538Z,53.3
2019-05-05T10:09:49.609Z,54.4
2019-05-05T10:10:39.095Z,55.6
2019-05-05T10:11:29.723Z,56.9
2019-05-05T10:12:19.780Z,58.3
2019-05-05T10:13:09.583Z,59.6
2019-05-05T10:13:59.625Z,61.3
2019-05-05T10:14:50.008Z,63.1
2019-05-05T10:15:39.288Z,62.7
2019-05-05T10:16:29.545Z,61.8
2019-05-05T10:17:19.882Z,59.8
2019-05-05T10:18:09.948Z,56.7
2019-05-05T10:18:59.728Z,54.3
2019-05-05T10:19:50.062Z,52.8
2019-05-05T10:20:40.112Z,51.8
2019-05-05T10:21:30.175Z,51.1
2019-05-05T10:23:10.577Z,49.9
2019-05-05T10:24:00.377Z,49.1
2019-05-05T10:24:50.164Z,48.3
2019-05-05T10:25:40.763Z,47.7
2019-05-05T10:26:30.265Z,47.1
2019-05-05T10:27:20.897Z,46.5
2019-05-05T10:28:10.952Z,46.1
2019-05-05T10:29:05.190Z,45.6
2019-05-05T10:30:41.174Z,44.8
2019-05-05T10:31:31.202Z,44.3
2019-05-05T10:32:21.014Z,43.9
2019-05-05T10:33:11.044Z,43.5
2019-05-05T10:34:00.831Z,43.1
2019-05-05T10:34:50.886Z,42.8
2019-05-05T10:35:43.179Z,42.4
2019-05-05T10:37:23.455Z,41.9
2019-05-05T10:39:01.476Z,41.4
2019-05-05T10:39:51.254Z,41.2
2019-05-05T10:40:41.624Z,40.9
2019-05-05T10:42:21.739Z,40.3
2019-05-05T10:43:12.090Z,40.1
2019-05-05T10:45:43.888Z,39.5
2019-05-05T11:25:09.531Z,37.4
2019-05-05T11:49:58.545Z,50.9
2019-05-05T11:55:15.902Z,50.5
2019-05-05T12:05:38.978Z,58.3
2019-05-05T12:06:29.004Z,60.5
2019-05-05T12:07:19.341Z,59.7
2019-05-05T12:08:08.849Z,57.5
2019-05-05T12:08:59.463Z,53.4
2019-05-05T12:09:49.267Z,49.6
2019-05-05T12:10:39.335Z,47.5
2019-05-05T12:11:29.093Z,46.6
2019-05-05T12:12:18.874Z,46.3
2019-05-05T12:13:09.763Z,46.5
2019-05-05T12:13:59.576Z,46.9
2019-05-05T12:14:49.899Z,47.4
2019-05-05T12:15:39.948Z,47.8
2019-05-05T12:16:29.706Z,48.1
2019-05-05T12:17:19.863Z,48.1
2019-05-05T12:18:10.138Z,48.1
2019-05-05T12:18:59.653Z,47.9
2019-05-05T12:19:50.639Z,47.8
2019-05-05T12:20:40.040Z,47.6
2019-05-05T12:21:30.102Z,47.6
2019-05-05T12:22:20.448Z,47.6
2019-05-05T12:23:10.513Z,47.7
2019-05-05T12:24:00.025Z,47.8
2019-05-05T12:24:50.628Z,47.9
2019-05-05T12:25:40.708Z,48.1
2019-05-05T12:26:30.750Z,48.4
2019-05-05T12:27:20.270Z,49
2019-05-05T12:28:10.905Z,49.9
2019-05-05T12:29:00.710Z,50.9
2019-05-05T12:29:50.735Z,51.8
2019-05-05T12:30:41.057Z,52.6
2019-05-05T12:31:30.593Z,53.2
2019-05-05T12:32:21.192Z,53.4
2019-05-05T12:33:10.976Z,53.4
2019-05-05T12:34:01.030Z,53.2
2019-05-05T12:34:51.330Z,52.9
2019-05-05T12:36:31.489Z,52.6
2019-05-05T12:37:23.477Z,52.5
2019-05-05T12:39:03.556Z,52.4
2019-05-05T12:40:41.822Z,52.9
2019-05-05T12:41:31.322Z,53.4
2019-05-05T12:42:24.009Z,54.1
2019-05-05T12:44:04.325Z,55.7
2019-05-05T12:50:44.481Z,48.2
2019-05-05T13:22:26.666Z,51.8
2019-05-05T13:26:00.748Z,51.4
2019-05-05T13:46:53.419Z,44
2019-05-05T13:54:07.302Z,40.9
2019-05-05T13:55:47.834Z,40.3
2019-05-05T13:58:17.589Z,39.4
2019-05-05T13:59:07.659Z,39.1
2019-05-05T13:59:57.435Z,38.8
2019-05-05T14:00:47.290Z,38.6
2019-05-05T14:01:37.323Z,38.7
2019-05-05T14:02:27.671Z,38.9
2019-05-05T14:03:17.701Z,39.4
2019-05-05T14:04:07.754Z,39.9
2019-05-05T14:06:38.876Z,41.5
2019-05-05T14:07:28.953Z,42.1
2019-05-05T14:08:18.981Z,42.7
2019-05-05T14:09:08.770Z,43.1
2019-05-05T14:10:01.020Z,43.5
2019-05-05T14:10:49.166Z,43.7
2019-05-05T14:11:39.336Z,43.8
2019-05-05T14:12:29.563Z,43.9
2019-05-05T14:13:18.596Z,44.1
2019-05-05T14:14:09.469Z,44.3
2019-05-05T14:14:59.748Z,44.3
2019-05-05T14:15:49.818Z,44.3
2019-05-05T14:16:39.888Z,44.1
2019-05-05T14:17:29.931Z,43.9
2019-05-05T14:18:19.453Z,43.8
2019-05-05T14:19:09.807Z,43.6
2019-05-05T14:20:15.743Z,43.4
2019-05-05T14:21:40.243Z,43
2019-05-05T14:22:29.767Z,42.9
2019-05-05T14:23:20.372Z,42.7
2019-05-05T14:24:10.158Z,42.6
2019-05-05T14:25:00.483Z,42.4
2019-05-05T14:25:50.081Z,42.3
2019-05-05T14:26:40.629Z,42.1
2019-05-05T14:27:30.688Z,41.9
2019-05-05T14:28:20.745Z,41.8
2019-05-05T14:29:10.804Z,41.6
2019-05-05T14:30:00.874Z,41.4
2019-05-05T14:30:50.392Z,41.3
2019-05-05T14:31:40.457Z,41.1
2019-05-05T14:32:31.075Z,40.9
2019-05-05T14:33:21.124Z,40.7
2019-05-05T14:34:10.907Z,40.5
2019-05-05T14:35:00.967Z,40.3
2019-05-05T14:35:51.047Z,40.1
2019-05-05T14:36:41.359Z,39.8
2019-05-05T14:37:31.137Z,39.5
2019-05-05T14:38:23.454Z,39.3
2019-05-05T14:40:01.069Z,38.9
2019-05-05T14:40:53.665Z,38.7
2019-05-05T14:42:31.551Z,38.2
2019-05-05T14:43:23.862Z,38
2019-05-05T14:45:51.779Z,37.5
2019-05-05T14:46:41.841Z,37.4
2019-05-05T14:47:34.074Z,37.2
2019-05-05T14:49:11.756Z,36.9
2019-05-05T14:50:04.454Z,36.7
2019-05-05T14:52:31.994Z,36.2
2019-05-05T14:53:24.039Z,36.1
2019-05-05T15:15:08.625Z,31.3
2019-05-05T15:26:55.884Z,28.9
2019-05-05T15:42:35.816Z,26.2
2019-05-05T15:45:56.074Z,25.7
2019-05-05T15:46:49.058Z,25.6
2019-05-05T15:50:06.715Z,25.1
2019-05-05T15:50:56.430Z,25
2019-05-05T15:52:36.788Z,24.8
2019-05-05T15:54:16.687Z,24.6
2019-05-05T15:55:06.750Z,24.4
2019-05-05T15:55:56.837Z,24.3
2019-05-05T15:56:46.885Z,24.3
2019-05-05T15:57:36.667Z,24.1
2019-05-05T15:58:26.722Z,24
2019-05-05T15:59:17.077Z,23.9
2019-05-05T16:00:07.117Z,23.8
2019-05-05T16:00:57.177Z,23.7
2019-05-05T16:01:47.240Z,23.6
2019-05-05T16:02:37.370Z,23.6
2019-05-05T16:03:29.754Z,23.4
2019-05-05T16:04:17.432Z,23.4
2019-05-05T16:06:38.324Z,23.2
2019-05-05T16:07:28.359Z,23.1
2019-05-05T16:08:18.412Z,23
2019-05-05T16:09:58.272Z,22.9
2019-05-05T16:10:48.409Z,22.8
2019-05-05T16:11:38.927Z,22.7
2019-05-05T16:12:40.439Z,22.7
2019-05-05T16:13:18.776Z,22.6
2019-05-05T16:14:08.854Z,22.5
2019-05-05T16:14:59.176Z,22.4
2019-05-05T16:15:48.978Z,22.4
2019-05-05T16:16:39.316Z,22.3
2019-05-05T16:17:29.384Z,22.3
2019-05-05T16:18:19.219Z,22.2
2019-05-05T16:19:09.869Z,22.1
2019-05-05T16:19:59.348Z,22.1
2019-05-05T16:20:49.343Z,22
2019-05-05T16:21:39.928Z,21.9
2019-05-05T16:22:29.476Z,21.9
2019-05-05T16:23:19.271Z,21.8
2019-05-05T16:24:09.316Z,21.8
2019-05-05T16:24:59.930Z,21.7
2019-05-05T16:28:20.178Z,21.4
2019-05-05T16:29:10.358Z,21.4
2019-05-05T16:30:00.073Z,21.3
2019-05-05T16:30:50.103Z,21.3
2019-05-05T16:31:40.185Z,21.2
2019-05-05T16:33:20.559Z,21.1
2019-05-05T16:34:10.627Z,21
2019-05-05T16:35:03.524Z,20.9
2019-05-05T16:35:50.735Z,20.9
2019-05-05T16:36:41.013Z,20.8
2019-05-05T16:37:30.592Z,20.8
2019-05-05T16:38:20.951Z,20.7
2019-05-05T16:39:10.713Z,20.6
2019-05-05T16:40:01.057Z,20.6
2019-05-05T16:40:50.860Z,20.6
2019-05-05T16:41:40.915Z,20.5
2019-05-05T16:44:11.372Z,20.3
2019-05-05T16:45:01.428Z,20.2
2019-05-05T16:45:51.229Z,20.1
2019-05-05T16:46:43.409Z,20.1
2019-05-05T16:48:23.764Z,20
2019-05-05T16:49:12.244Z,19.9
2019-05-05T16:50:01.807Z,19.9
2019-05-05T16:50:54.025Z,19.8
2019-05-05T16:51:56.514Z,19.8
2019-05-05T16:54:14.261Z,19.6
2019-05-05T16:55:04.335Z,19.5
2019-05-05T16:55:53.733Z,19.4
2019-05-05T16:56:43.798Z,19.4
2019-05-05T16:57:37.479Z,19.3
2019-05-05T16:58:37.076Z,19.3
2019-05-05T17:00:02.563Z,19.1
2019-05-05T17:00:54.821Z,18.9
2019-05-05T17:01:44.420Z,18.8
2019-05-05T17:03:24.438Z,18.6
2019-05-05T17:04:15.316Z,18.4
2019-05-05T17:05:04.339Z,18.3
2019-05-05T17:05:58.446Z,18.2
2019-05-05T17:06:46.181Z,18.1
2019-05-05T17:07:35.478Z,18
2019-05-05T17:08:25.668Z,17.9
2019-05-05T17:11:25.140Z,17.7
2019-05-05T17:11:47.169Z,17.5
2019-05-05T17:12:37.683Z,17.5
2019-05-05T17:14:18.191Z,17.4
2019-05-05T17:16:48.100Z,17.1
2019-05-05T17:17:55.478Z,17.1
2019-05-05T17:18:54.045Z,16.9
2019-05-05T17:23:30.409Z,16.7
2019-05-05T17:24:58.415Z,16.5
2019-05-05T17:25:48.412Z,16.4
2019-05-05T17:27:29.082Z,16.3
2019-05-05T17:28:18.887Z,16.3
2019-05-05T17:30:48.299Z,16.1
2019-05-05T17:32:29.440Z,16
2019-05-05T17:33:19.514Z,15.9
2019-05-05T17:34:59.386Z,15.9
2019-05-05T17:35:49.909Z,15.8
2019-05-05T17:36:39.790Z,15.8
2019-05-05T17:38:19.851Z,15.7
2019-05-05T17:39:09.391Z,15.7
2019-05-05T17:40:00.006Z,15.7
2019-05-05T17:41:39.861Z,15.6
2019-05-05T17:42:30.229Z,15.6
2019-05-05T17:43:29.373Z,15.5
2019-05-05T17:45:00.381Z,15.4
2019-05-05T17:45:50.456Z,15.4
2019-05-05T17:46:40.238Z,15.4
2019-05-05T17:47:30.016Z,15.4
2019-05-05T17:48:20.656Z,15.3
2019-05-05T17:49:10.413Z,15.3
2019-05-05T17:50:00.493Z,15.3
2019-05-05T17:50:50.226Z,15.3
2019-05-05T17:51:40.631Z,15.3
2019-05-05T17:52:30.940Z,15.2
2019-05-05T17:53:20.458Z,15.2
2019-05-05T17:54:10.240Z,15.2
2019-05-05T17:55:00.385Z,15.1
2019-05-05T17:55:50.363Z,15.1
2019-05-05T17:56:41.240Z,15.1
2019-05-05T17:57:31.046Z,15.1
2019-05-05T17:58:20.820Z,15.1
2019-05-05T17:59:11.445Z,15.1
2019-05-05T18:00:01.516Z,15
2019-05-05T18:00:51.570Z,15
2019-05-05T18:01:41.072Z,15
2019-05-05T18:02:31.418Z,14.9
2019-05-05T18:03:21.760Z,14.9
2019-05-05T18:04:14.040Z,14.9
2019-05-05T18:06:54.930Z,14.9
2019-05-05T18:10:35.197Z,14.8
2019-05-05T18:12:15.039Z,14.8
2019-05-05T18:14:54.629Z,14.8
2019-05-05T18:16:47.369Z,14.8
2019-05-05T18:17:27.186Z,14.8
2019-05-05T18:20:10.264Z,14.8
2019-05-05T18:24:57.547Z,14.7
2019-05-05T18:25:34.191Z,14.8
2019-05-05T18:26:07.565Z,14.7
2019-05-05T18:26:57.638Z,14.7
2019-05-05T18:27:47.685Z,14.7
2019-05-05T18:28:54.028Z,14.7
2019-05-05T18:30:23.916Z,14.7
2019-05-05T18:33:42.058Z,14.6
2019-05-05T18:35:37.556Z,14.6
2019-05-05T18:39:34.130Z,14.6
